createdAt,value
2017-05-05T00:00:28.518Z,0
2017-05-05T00:01:42.851Z,0
2017-05-05T00:02:28.559Z,0
2017-05-05T00:03:43.203Z,0
2017-05-05T00:04:27.989Z,0
2017-05-05T00:05:28.315Z,0
2017-05-05T00:06:28.333Z,0
2017-05-05T00:07:28.354Z,0
2017-05-05T00:08:28.377Z,0
2017-05-05T00:09:28.413Z,0
2017-05-05T00:10:57.957Z,0
2017-05-05T00:11:28.740Z,0
2017-05-05T00:13:28.477Z,0
2017-05-05T00:14:28.497Z,0
2017-05-05T00:15:43.439Z,0
2017-05-05T00:16:28.542Z,0
2017-05-05T00:17:28.257Z,0
2017-05-05T00:18:43.504Z,0
2017-05-05T00:19:43.518Z,0
2017-05-05T00:21:28.646Z,0
2017-05-05T00:22:28.969Z,0
2017-05-05T00:23:28.379Z,0
2017-05-05T00:24:29.009Z,0
2017-05-05T00:25:29.036Z,0
2017-05-05T00:26:28.747Z,0
2017-05-05T00:27:43.682Z,0
2017-05-05T00:28:29.090Z,0
2017-05-05T00:29:29.107Z,0
2017-05-05T00:30:29.129Z,0
2017-05-05T00:31:29.170Z,0
2017-05-05T00:32:43.786Z,0
2017-05-05T00:33:29.195Z,0
2017-05-05T00:34:43.831Z,0
2017-05-05T00:35:29.233Z,0
2017-05-05T00:36:29.246Z,0
2017-05-05T00:37:29.269Z,0
2017-05-05T00:38:29.295Z,0
2017-05-05T00:39:29.309Z,0
2017-05-05T00:40:29.333Z,0
2017-05-05T00:41:29.350Z,0
2017-05-05T00:42:29.370Z,0
2017-05-05T00:43:29.393Z,0
2017-05-05T00:44:44.027Z,0
2017-05-05T00:45:29.437Z,0
2017-05-05T00:46:29.460Z,0
2017-05-05T00:47:43.788Z,0
2017-05-05T00:48:29.491Z,0
2017-05-05T00:49:29.513Z,0
2017-05-05T00:50:44.147Z,0
2017-05-05T00:51:29.254Z,0
2017-05-05T00:52:44.188Z,0
2017-05-05T00:53:29.594Z,0
2017-05-05T00:54:29.617Z,0
2017-05-05T00:56:29.658Z,0
2017-05-05T00:57:44.300Z,0
2017-05-05T00:58:44.315Z,0
2017-05-05T00:59:29.723Z,0
2017-05-05T01:00:29.738Z,0
2017-05-05T01:01:29.760Z,0
2017-05-05T01:02:29.775Z,0
2017-05-05T01:03:44.413Z,0
2017-05-05T01:04:59.049Z,0
2017-05-05T01:05:29.835Z,0
2017-05-05T01:07:29.878Z,0
2017-05-05T01:08:29.897Z,0
2017-05-05T01:09:29.613Z,0
2017-05-05T01:10:29.943Z,0
2017-05-05T01:11:29.959Z,0
2017-05-05T01:12:29.979Z,0
2017-05-05T01:13:30.009Z,0
2017-05-05T01:14:44.636Z,0
2017-05-05T01:15:44.656Z,0
2017-05-05T01:16:30.060Z,0
2017-05-05T01:17:44.698Z,0
2017-05-05T01:18:30.103Z,0
2017-05-05T01:19:59.352Z,0
2017-05-05T01:20:30.146Z,0
2017-05-05T01:22:30.190Z,0
2017-05-05T01:23:30.204Z,0
2017-05-05T01:25:30.247Z,0
2017-05-05T01:26:30.269Z,0
2017-05-05T01:27:30.287Z,0
2017-05-05T01:28:30.002Z,0
2017-05-05T01:29:30.326Z,0
2017-05-05T01:30:30.344Z,0
2017-05-05T01:31:44.981Z,0
2017-05-05T01:32:30.414Z,0
2017-05-05T01:33:30.412Z,0
2017-05-05T01:34:59.658Z,0
2017-05-05T01:35:30.141Z,0
2017-05-05T01:36:30.163Z,0
2017-05-05T01:38:30.206Z,0
2017-05-05T01:39:30.536Z,0
2017-05-05T01:40:30.242Z,0
2017-05-05T01:42:30.283Z,0
2017-05-05T01:43:30.609Z,0
2017-05-05T01:44:30.330Z,0
2017-05-05T01:45:30.650Z,0
2017-05-05T01:46:45.289Z,0
2017-05-05T01:47:30.688Z,0
2017-05-05T01:48:30.713Z,0
2017-05-05T01:49:30.732Z,0
2017-05-05T01:50:30.446Z,0
2017-05-05T01:51:30.467Z,0
2017-05-05T01:52:30.795Z,0
2017-05-05T01:53:45.429Z,0
2017-05-05T01:54:30.839Z,0
2017-05-05T01:55:30.548Z,0
2017-05-05T01:56:30.873Z,0
2017-05-05T01:57:30.893Z,0
2017-05-05T01:58:31.219Z,0
2017-05-05T01:59:30.939Z,0
2017-05-05T02:00:30.954Z,0
2017-05-05T02:01:30.979Z,0
2017-05-05T02:02:45.612Z,0
2017-05-05T02:03:31.017Z,0
2017-05-05T02:04:31.039Z,0
2017-05-05T02:05:31.057Z,0
2017-05-05T02:06:45.693Z,0
2017-05-05T02:07:30.798Z,0
2017-05-05T02:08:30.821Z,0
2017-05-05T02:09:45.757Z,0
2017-05-05T02:10:31.158Z,0
2017-05-05T02:11:31.180Z,0
2017-05-05T02:12:30.898Z,0
2017-05-05T02:13:31.222Z,0
2017-05-05T02:14:30.937Z,0
2017-05-05T02:15:30.956Z,0
2017-05-05T02:16:31.280Z,0
2017-05-05T02:17:31.301Z,0
2017-05-05T02:18:31.325Z,0
2017-05-05T02:19:31.341Z,0
2017-05-05T02:20:31.058Z,0
2017-05-05T02:21:31.381Z,0
2017-05-05T02:22:46.018Z,0
2017-05-05T02:23:31.423Z,0
2017-05-05T02:24:31.448Z,0
2017-05-05T02:25:46.078Z,0
2017-05-05T02:26:31.180Z,0
2017-05-05T02:27:31.513Z,0
2017-05-05T02:28:31.228Z,0
2017-05-05T02:29:45.560Z,0
2017-05-05T02:30:45.882Z,0
2017-05-05T02:31:31.281Z,0
2017-05-05T02:32:31.305Z,0
2017-05-05T02:33:31.625Z,0
2017-05-05T02:34:31.651Z,0
2017-05-05T02:35:46.290Z,0
2017-05-05T02:36:31.690Z,0
2017-05-05T02:37:31.420Z,0
2017-05-05T02:38:31.728Z,0
2017-05-05T02:39:31.757Z,0
2017-05-05T02:40:31.468Z,0
2017-05-05T02:41:46.430Z,0
2017-05-05T02:42:31.807Z,0
2017-05-05T02:43:31.832Z,0
2017-05-05T02:44:31.855Z,0
2017-05-05T02:46:31.895Z,0
2017-05-05T02:47:31.911Z,0
2017-05-05T02:48:31.933Z,0
2017-05-05T02:49:31.955Z,0
2017-05-05T02:50:31.974Z,0
2017-05-05T02:51:46.613Z,0
2017-05-05T02:52:32.017Z,0
2017-05-05T02:53:46.653Z,0
2017-05-05T02:54:32.059Z,0
2017-05-05T02:55:32.080Z,0
2017-05-05T02:56:46.716Z,0
2017-05-05T02:57:32.117Z,0
2017-05-05T02:58:32.166Z,0
2017-05-05T02:59:32.157Z,0
2017-05-05T03:00:32.178Z,0
2017-05-05T03:01:32.200Z,0
2017-05-05T03:02:32.217Z,0
2017-05-05T03:03:32.239Z,0
2017-05-05T03:04:32.267Z,0
2017-05-05T03:05:32.280Z,0
2017-05-05T03:06:32.302Z,0
2017-05-05T03:07:32.320Z,0
2017-05-05T03:09:32.061Z,0
2017-05-05T03:10:32.386Z,0
2017-05-05T03:11:32.409Z,0
2017-05-05T03:13:32.445Z,0
2017-05-05T03:14:32.472Z,0
2017-05-05T03:15:32.515Z,0
2017-05-05T03:17:32.225Z,0
2017-05-05T03:18:32.553Z,0
2017-05-05T03:19:32.579Z,0
2017-05-05T03:20:32.282Z,0
2017-05-05T03:21:32.617Z,0
2017-05-05T03:22:32.326Z,0
2017-05-05T03:23:46.965Z,0
2017-05-05T03:24:47.285Z,0
2017-05-05T03:25:32.384Z,0
2017-05-05T03:26:47.328Z,0
2017-05-05T03:27:32.424Z,0
2017-05-05T03:29:32.479Z,0
2017-05-05T03:30:32.488Z,0
2017-05-05T03:31:32.811Z,0
2017-05-05T03:32:32.230Z,0
2017-05-05T03:33:32.246Z,0
2017-05-05T03:34:32.877Z,0
2017-05-05T03:35:47.511Z,0
2017-05-05T03:36:32.914Z,0
2017-05-05T03:37:32.946Z,0
2017-05-05T03:38:32.957Z,0
2017-05-05T03:39:32.976Z,0
2017-05-05T03:40:33.003Z,0
2017-05-05T03:41:47.635Z,0
2017-05-05T03:42:33.036Z,0
2017-05-05T03:43:33.061Z,0
2017-05-05T03:44:47.693Z,0
2017-05-05T03:46:32.815Z,0
2017-05-05T03:47:32.837Z,0
2017-05-05T03:50:33.201Z,0
2017-05-05T03:51:33.226Z,0
2017-05-05T03:52:33.239Z,0
2017-05-05T03:53:33.265Z,0
2017-05-05T03:54:33.285Z,0
2017-05-05T03:56:02.536Z,0
2017-05-05T03:56:47.940Z,0
2017-05-05T03:57:33.343Z,0
2017-05-05T03:58:33.368Z,0
2017-05-05T03:59:33.386Z,0
2017-05-05T04:00:48.021Z,0
2017-05-05T04:01:33.422Z,0
2017-05-05T04:02:48.075Z,0
2017-05-05T04:03:33.464Z,0
2017-05-05T04:04:33.489Z,0
2017-05-05T04:05:33.505Z,0
2017-05-05T04:06:33.530Z,0
2017-05-05T04:07:33.556Z,0
2017-05-05T04:08:33.578Z,0
2017-05-05T04:09:33.594Z,0
2017-05-05T04:10:48.232Z,0
2017-05-05T04:11:33.632Z,0
2017-05-05T04:13:33.367Z,0
2017-05-05T04:14:33.392Z,0
2017-05-05T04:15:33.714Z,5
2017-05-05T04:16:48.352Z,5
2017-05-05T04:18:33.503Z,5
2017-05-05T04:19:33.494Z,5
2017-05-05T04:20:33.819Z,5
2017-05-05T04:21:33.538Z,5
2017-05-05T04:22:33.879Z,5
2017-05-05T04:23:33.879Z,5
2017-05-05T04:24:48.515Z,5
2017-05-05T04:25:48.541Z,5
2017-05-05T04:26:48.553Z,5
2017-05-05T04:27:33.965Z,5
2017-05-05T04:28:33.981Z,5
2017-05-05T04:29:34.002Z,5
2017-05-05T04:30:34.027Z,5
2017-05-05T04:31:48.657Z,5
2017-05-05T04:32:34.067Z,5
2017-05-05T04:33:34.090Z,5
2017-05-05T04:34:34.104Z,5
2017-05-05T04:35:34.132Z,5
2017-05-05T04:36:34.149Z,5
2017-05-05T04:39:34.203Z,5
2017-05-05T04:40:34.222Z,5
2017-05-05T04:41:48.861Z,5
2017-05-05T04:42:34.278Z,5
2017-05-05T04:43:33.986Z,5
2017-05-05T04:45:03.538Z,5
2017-05-05T04:45:34.030Z,5
2017-05-05T04:46:34.054Z,5
2017-05-05T04:47:34.069Z,5
2017-05-05T04:48:34.121Z,5
2017-05-05T04:50:34.135Z,10
2017-05-05T04:51:49.064Z,10
2017-05-05T04:52:34.471Z,10
2017-05-05T04:53:34.496Z,15
2017-05-05T04:54:34.516Z,15
2017-05-05T04:55:34.537Z,15
2017-05-05T04:56:34.552Z,15
2017-05-05T04:57:34.581Z,15
2017-05-05T04:58:48.912Z,20
2017-05-05T04:59:34.616Z,20
2017-05-05T05:00:34.636Z,15
2017-05-05T05:01:34.655Z,15
2017-05-05T05:02:34.074Z,15
2017-05-05T05:03:49.312Z,15
2017-05-05T05:05:34.740Z,15
2017-05-05T05:06:34.759Z,20
2017-05-05T05:07:34.782Z,20
2017-05-05T05:08:49.119Z,20
2017-05-05T05:09:49.439Z,20
2017-05-05T05:10:34.240Z,20
2017-05-05T05:11:34.892Z,20
2017-05-05T05:12:34.883Z,20
2017-05-05T05:13:34.903Z,20
2017-05-05T05:14:49.240Z,15
2017-05-05T05:15:49.562Z,15
2017-05-05T05:16:34.968Z,15
2017-05-05T05:18:04.217Z,10
2017-05-05T05:18:35.005Z,15
2017-05-05T05:19:49.643Z,15
2017-05-05T05:20:35.048Z,15
2017-05-05T05:21:35.067Z,15
2017-05-05T05:22:35.088Z,15
2017-05-05T05:23:35.109Z,10
2017-05-05T05:24:35.133Z,10
2017-05-05T05:25:35.149Z,10
2017-05-05T05:26:35.173Z,10
2017-05-05T05:27:35.203Z,10
2017-05-05T05:28:35.210Z,10
2017-05-05T05:29:49.849Z,10
2017-05-05T05:30:49.892Z,10
2017-05-05T05:31:35.279Z,10
2017-05-05T05:32:49.910Z,10
2017-05-05T05:33:35.314Z,15
2017-05-05T05:34:35.336Z,15
2017-05-05T05:35:49.977Z,15
2017-05-05T05:36:35.385Z,15
2017-05-05T05:37:50.021Z,15
2017-05-05T05:38:35.427Z,15
2017-05-05T05:41:35.481Z,20
2017-05-05T05:42:35.521Z,20
2017-05-05T05:43:35.521Z,25
2017-05-05T05:44:50.160Z,25
2017-05-05T05:45:35.565Z,30
2017-05-05T05:46:35.585Z,35
2017-05-05T05:47:35.606Z,35
2017-05-05T05:48:35.630Z,40
2017-05-05T05:49:35.645Z,45
2017-05-05T05:50:35.673Z,45
2017-05-05T05:52:35.705Z,45
2017-05-05T05:54:35.753Z,50
2017-05-05T05:55:35.464Z,50
2017-05-05T05:56:35.795Z,50
2017-05-05T05:57:35.816Z,55
2017-05-05T05:58:50.452Z,55
2017-05-05T05:59:35.857Z,50
2017-05-05T06:00:50.491Z,50
2017-05-05T06:01:35.894Z,50
2017-05-05T06:02:35.916Z,50
2017-05-05T06:03:35.933Z,50
2017-05-05T06:04:35.963Z,50
2017-05-05T06:05:35.980Z,45
2017-05-05T06:06:50.616Z,45
2017-05-05T06:07:36.023Z,45
2017-05-05T06:08:36.042Z,45
2017-05-05T06:09:36.071Z,45
2017-05-05T06:10:36.083Z,45
2017-05-05T06:12:36.126Z,50
2017-05-05T06:13:36.153Z,50
2017-05-05T06:14:36.173Z,50
2017-05-05T06:15:36.406Z,55
2017-05-05T06:16:36.209Z,65
2017-05-05T06:17:35.932Z,70
2017-05-05T06:18:36.251Z,75
2017-05-05T06:19:36.282Z,85
2017-05-05T06:20:36.293Z,85
2017-05-05T06:21:36.012Z,85
2017-05-05T06:22:36.337Z,80
2017-05-05T06:23:36.366Z,80
2017-05-05T06:24:36.376Z,80
2017-05-05T06:26:36.427Z,65
2017-05-05T06:27:36.450Z,65
2017-05-05T06:28:36.467Z,65
2017-05-05T06:29:36.490Z,65
2017-05-05T06:30:36.201Z,65
2017-05-05T06:31:51.142Z,60
2017-05-05T06:32:51.163Z,55
2017-05-05T06:33:36.573Z,50
2017-05-05T06:35:05.821Z,50
2017-05-05T06:35:36.607Z,50
2017-05-05T06:36:36.633Z,50
2017-05-05T06:37:51.269Z,45
2017-05-05T06:38:50.984Z,45
2017-05-05T06:39:36.696Z,45
2017-05-05T06:40:36.716Z,50
2017-05-05T06:41:36.438Z,50
2017-05-05T06:42:36.464Z,50
2017-05-05T06:43:36.784Z,50
2017-05-05T06:44:36.829Z,50
2017-05-05T06:45:36.853Z,50
2017-05-05T06:46:51.459Z,50
2017-05-05T06:47:36.869Z,50
2017-05-05T06:48:36.581Z,50
2017-05-05T06:49:36.906Z,50
2017-05-05T06:50:36.934Z,50
2017-05-05T06:51:36.951Z,50
2017-05-05T06:52:36.980Z,50
2017-05-05T06:53:51.609Z,55
2017-05-05T06:54:51.637Z,60
2017-05-05T06:56:36.754Z,60
2017-05-05T06:58:37.102Z,55
2017-05-05T06:59:37.120Z,55
2017-05-05T07:01:36.873Z,55
2017-05-05T07:02:37.187Z,55
2017-05-05T07:03:37.208Z,60
2017-05-05T07:04:51.541Z,60
2017-05-05T07:05:37.251Z,65
2017-05-05T07:07:06.506Z,65
2017-05-05T07:07:36.989Z,65
2017-05-05T07:08:37.015Z,65
2017-05-05T07:09:51.953Z,60
2017-05-05T07:10:51.974Z,55
2017-05-05T07:11:37.379Z,55
2017-05-05T07:12:37.401Z,50
2017-05-05T07:13:37.454Z,50
2017-05-05T07:14:52.091Z,50
2017-05-05T07:15:37.492Z,50
2017-05-05T07:16:37.205Z,50
2017-05-05T07:17:52.128Z,50
2017-05-05T07:18:37.532Z,50
2017-05-05T07:19:37.558Z,50
2017-05-05T07:20:37.578Z,50
2017-05-05T07:21:37.600Z,50
2017-05-05T07:23:06.852Z,50
2017-05-05T07:23:37.645Z,50
2017-05-05T07:24:52.280Z,50
2017-05-05T07:25:37.680Z,50
2017-05-05T07:26:52.324Z,50
2017-05-05T07:27:52.341Z,45
2017-05-05T07:28:52.377Z,45
2017-05-05T07:29:37.769Z,45
2017-05-05T07:30:37.792Z,45
2017-05-05T07:31:37.510Z,45
2017-05-05T07:32:52.454Z,45
2017-05-05T07:33:37.852Z,45
2017-05-05T07:34:52.495Z,45
2017-05-05T07:35:37.897Z,45
2017-05-05T07:36:52.536Z,45
2017-05-05T07:37:37.939Z,45
2017-05-05T07:40:07.216Z,40
2017-05-05T07:40:37.727Z,35
2017-05-05T07:41:52.345Z,35
2017-05-05T07:42:52.667Z,40
2017-05-05T07:43:38.078Z,40
2017-05-05T07:44:37.788Z,40
2017-05-05T07:45:38.145Z,45
2017-05-05T07:47:37.861Z,45
2017-05-05T07:48:38.180Z,50
2017-05-05T07:49:38.212Z,50
2017-05-05T07:50:37.921Z,50
2017-05-05T07:51:52.884Z,50
2017-05-05T07:52:38.267Z,45
2017-05-05T07:53:38.292Z,45
2017-05-05T07:54:38.320Z,50
2017-05-05T07:55:38.027Z,50
2017-05-05T07:56:52.972Z,50
2017-05-05T07:57:38.074Z,50
2017-05-05T07:58:38.414Z,55
2017-05-05T07:59:38.424Z,50
2017-05-05T08:00:38.467Z,50
2017-05-05T08:01:38.163Z,50
2017-05-05T08:02:38.493Z,50
2017-05-05T08:03:53.127Z,50
2017-05-05T08:04:38.533Z,50
2017-05-05T08:05:38.560Z,55
2017-05-05T08:06:38.577Z,55
2017-05-05T08:07:38.593Z,55
2017-05-05T08:08:38.618Z,60
2017-05-05T08:09:52.954Z,65
2017-05-05T08:10:38.053Z,70
2017-05-05T08:11:38.682Z,70
2017-05-05T08:12:38.704Z,75
2017-05-05T08:14:38.748Z,75
2017-05-05T08:16:38.788Z,70
2017-05-05T08:17:38.813Z,70
2017-05-05T08:18:38.837Z,70
2017-05-05T08:19:38.861Z,70
2017-05-05T08:20:38.879Z,70
2017-05-05T08:21:38.598Z,70
2017-05-05T08:22:38.315Z,70
2017-05-05T08:23:38.959Z,70
2017-05-05T08:24:38.987Z,65
2017-05-05T08:25:39.001Z,65
2017-05-05T08:26:39.016Z,60
2017-05-05T08:28:08.265Z,55
2017-05-05T08:28:53.673Z,55
2017-05-05T08:29:53.699Z,55
2017-05-05T08:30:39.115Z,55
2017-05-05T08:31:39.129Z,55
2017-05-05T08:32:39.144Z,55
2017-05-05T08:33:38.866Z,60
2017-05-05T08:35:38.904Z,60
2017-05-05T08:36:38.935Z,65
2017-05-05T08:37:38.952Z,70
2017-05-05T08:38:39.277Z,80
2017-05-05T08:39:39.002Z,85
2017-05-05T08:40:39.320Z,95
2017-05-05T08:42:08.577Z,100
2017-05-05T08:42:39.070Z,100
2017-05-05T08:44:39.110Z,95
2017-05-05T08:45:53.751Z,85
2017-05-05T08:46:54.070Z,80
2017-05-05T08:47:39.475Z,75
2017-05-05T08:49:39.221Z,70
2017-05-05T08:51:39.259Z,65
2017-05-05T08:52:54.214Z,65
2017-05-05T08:53:39.616Z,70
2017-05-05T08:54:54.249Z,70
2017-05-05T08:55:39.659Z,75
2017-05-05T08:56:39.676Z,75
2017-05-05T08:57:39.703Z,75
2017-05-05T08:59:08.954Z,75
2017-05-05T08:59:39.751Z,75
2017-05-05T09:00:39.781Z,75
2017-05-05T09:01:54.409Z,80
2017-05-05T09:02:39.837Z,80
2017-05-05T09:03:39.834Z,85
2017-05-05T09:04:39.578Z,95
2017-05-05T09:05:39.892Z,100
2017-05-05T09:06:39.902Z,100
2017-05-05T09:07:39.923Z,110
2017-05-05T09:08:39.950Z,115
2017-05-05T09:09:39.966Z,120
2017-05-05T09:10:54.607Z,125
2017-05-05T09:11:40.012Z,130
2017-05-05T09:13:09.270Z,145
2017-05-05T09:14:09.291Z,145
2017-05-05T09:14:40.090Z,145
2017-05-05T09:15:39.804Z,145
2017-05-05T09:16:54.461Z,140
2017-05-05T09:17:40.149Z,135
2017-05-05T09:18:39.866Z,130
2017-05-05T09:19:40.226Z,120
2017-05-05T09:20:39.932Z,110
2017-05-05T09:21:40.241Z,100
2017-05-05T09:22:40.273Z,100
2017-05-05T09:24:09.526Z,95
2017-05-05T09:24:40.308Z,95
2017-05-05T09:25:54.949Z,95
2017-05-05T09:26:40.047Z,95
2017-05-05T09:27:40.380Z,100
2017-05-05T09:28:40.400Z,100
2017-05-05T09:29:40.119Z,110
2017-05-05T09:30:40.143Z,115
2017-05-05T09:31:55.113Z,130
2017-05-05T09:32:40.188Z,130
2017-05-05T09:33:40.514Z,135
2017-05-05T09:34:40.541Z,130
2017-05-05T09:36:40.589Z,120
2017-05-05T09:37:40.629Z,115
2017-05-05T09:38:40.628Z,115
2017-05-05T09:39:40.655Z,110
2017-05-05T09:40:40.369Z,110
2017-05-05T09:41:40.696Z,110
2017-05-05T09:42:55.337Z,110
2017-05-05T09:43:55.363Z,110
2017-05-05T09:44:40.765Z,110
2017-05-05T09:45:40.791Z,110
2017-05-05T09:46:40.814Z,110
2017-05-05T09:47:40.844Z,115
2017-05-05T09:48:54.869Z,115
2017-05-05T09:49:40.889Z,120
2017-05-05T09:50:40.911Z,120
2017-05-05T09:51:40.927Z,115
2017-05-05T09:52:40.949Z,115
2017-05-05T09:53:40.976Z,115
2017-05-05T09:54:40.695Z,115
2017-05-05T09:55:41.026Z,115
2017-05-05T09:56:41.047Z,120
2017-05-05T09:57:41.071Z,125
2017-05-05T09:58:55.711Z,130
2017-05-05T10:00:10.348Z,125
2017-05-05T10:00:41.142Z,125
2017-05-05T10:01:41.163Z,120
2017-05-05T10:02:55.800Z,115
2017-05-05T10:03:40.900Z,110
2017-05-05T10:05:41.249Z,110
2017-05-05T10:06:40.978Z,115
2017-05-05T10:07:41.301Z,120
2017-05-05T10:08:55.942Z,135
2017-05-05T10:09:41.347Z,140
2017-05-05T10:11:55.401Z,145
2017-05-05T10:12:41.422Z,140
2017-05-05T10:13:56.053Z,125
2017-05-05T10:14:41.468Z,115
2017-05-05T10:16:10.718Z,105
2017-05-05T10:16:41.525Z,105
2017-05-05T10:17:41.528Z,100
2017-05-05T10:18:41.568Z,95
2017-05-05T10:19:41.575Z,90
2017-05-05T10:20:56.051Z,85
2017-05-05T10:21:41.625Z,85
2017-05-05T10:22:56.259Z,85
2017-05-05T10:23:56.331Z,85
2017-05-05T10:24:41.387Z,85
2017-05-05T10:25:41.712Z,90
2017-05-05T10:26:41.736Z,90
2017-05-05T10:27:41.764Z,90
2017-05-05T10:28:41.487Z,90
2017-05-05T10:29:41.806Z,90
2017-05-05T10:30:41.839Z,95
2017-05-05T10:31:41.855Z,95
2017-05-05T10:32:41.882Z,95
2017-05-05T10:33:41.618Z,95
2017-05-05T10:34:41.925Z,95
2017-05-05T10:35:56.560Z,95
2017-05-05T10:37:56.607Z,95
2017-05-05T10:38:42.023Z,95
2017-05-05T10:39:42.039Z,95
2017-05-05T10:40:42.060Z,95
2017-05-05T10:41:41.781Z,95
2017-05-05T10:42:42.109Z,90
2017-05-05T10:44:41.855Z,85
2017-05-05T10:45:56.795Z,80
2017-05-05T10:46:41.896Z,75
2017-05-05T10:47:42.224Z,75
2017-05-05T10:48:42.246Z,75
2017-05-05T10:49:42.273Z,75
2017-05-05T10:50:41.989Z,80
2017-05-05T10:51:56.936Z,80
2017-05-05T10:52:56.955Z,80
2017-05-05T10:53:42.371Z,80
2017-05-05T10:54:42.385Z,85
2017-05-05T10:55:42.407Z,85
2017-05-05T10:56:42.433Z,90
2017-05-05T10:57:42.460Z,95
2017-05-05T10:58:42.479Z,100
2017-05-05T10:59:42.500Z,100
2017-05-05T11:00:42.522Z,105
2017-05-05T11:01:57.164Z,105
2017-05-05T11:02:42.569Z,105
2017-05-05T11:03:56.909Z,100
2017-05-05T11:04:42.613Z,100
2017-05-05T11:05:42.642Z,105
2017-05-05T11:06:42.669Z,110
2017-05-05T11:07:42.691Z,105
2017-05-05T11:08:42.725Z,100
2017-05-05T11:09:42.730Z,105
2017-05-05T11:10:42.757Z,105
2017-05-05T11:11:42.789Z,105
2017-05-05T11:12:42.801Z,100
2017-05-05T11:13:42.825Z,100
2017-05-05T11:15:42.869Z,90
2017-05-05T11:16:42.899Z,90
2017-05-05T11:17:42.917Z,90
2017-05-05T11:18:42.942Z,85
2017-05-05T11:19:42.967Z,90
2017-05-05T11:21:12.220Z,100
2017-05-05T11:21:42.713Z,100
2017-05-05T11:22:57.346Z,100
2017-05-05T11:24:43.080Z,100
2017-05-05T11:25:42.797Z,100
2017-05-05T11:26:42.829Z,100
2017-05-05T11:27:42.849Z,100
2017-05-05T11:28:57.496Z,100
2017-05-05T11:29:43.197Z,100
2017-05-05T11:30:42.915Z,105
2017-05-05T11:31:57.557Z,105
2017-05-05T11:32:43.264Z,105
2017-05-05T11:33:42.988Z,100
2017-05-05T11:34:43.010Z,100
2017-05-05T11:35:43.341Z,100
2017-05-05T11:36:43.360Z,95
2017-05-05T11:37:43.383Z,95
2017-05-05T11:38:58.024Z,100
2017-05-05T11:39:58.045Z,100
2017-05-05T11:40:43.454Z,100
2017-05-05T11:41:43.182Z,100
2017-05-05T11:42:43.200Z,100
2017-05-05T11:43:43.532Z,100
2017-05-05T11:44:43.547Z,100
2017-05-05T11:45:43.569Z,95
2017-05-05T11:46:58.211Z,90
2017-05-05T11:47:43.619Z,85
2017-05-05T11:48:43.340Z,85
2017-05-05T11:49:43.663Z,80
2017-05-05T11:50:58.301Z,80
2017-05-05T11:52:12.944Z,75
2017-05-05T11:52:43.735Z,75
2017-05-05T11:53:43.757Z,75
2017-05-05T11:55:58.419Z,75
2017-05-05T11:56:43.827Z,80
2017-05-05T11:57:43.858Z,85
2017-05-05T11:58:43.875Z,90
2017-05-05T11:59:58.526Z,90
2017-05-05T12:00:43.924Z,90
2017-05-05T12:01:43.947Z,90
2017-05-05T12:02:43.969Z,90
2017-05-05T12:03:58.610Z,85
2017-05-05T12:04:44.013Z,85
2017-05-05T12:05:43.742Z,90
2017-05-05T12:06:58.675Z,85
2017-05-05T12:07:43.782Z,80
2017-05-05T12:08:44.113Z,80
2017-05-05T12:09:44.134Z,80
2017-05-05T12:10:58.773Z,80
2017-05-05T12:11:58.797Z,80
2017-05-05T12:12:44.205Z,85
2017-05-05T12:13:44.224Z,85
2017-05-05T12:14:43.947Z,90
2017-05-05T12:15:44.280Z,85
2017-05-05T12:16:44.297Z,80
2017-05-05T12:18:44.340Z,60
2017-05-05T12:19:44.368Z,60
2017-05-05T12:20:59.010Z,55
2017-05-05T12:21:44.417Z,60
2017-05-05T12:22:44.434Z,60
2017-05-05T12:23:59.079Z,60
2017-05-05T12:24:44.186Z,65
2017-05-05T12:25:44.511Z,65
2017-05-05T12:26:59.149Z,65
2017-05-05T12:27:44.553Z,65
2017-05-05T12:28:44.585Z,65
2017-05-05T12:29:44.604Z,65
2017-05-05T12:30:44.322Z,65
2017-05-05T12:31:44.649Z,70
2017-05-05T12:32:44.370Z,70
2017-05-05T12:34:44.423Z,70
2017-05-05T12:35:59.361Z,65
2017-05-05T12:36:44.462Z,65
2017-05-05T12:37:44.488Z,65
2017-05-05T12:38:44.811Z,65
2017-05-05T12:39:44.842Z,65
2017-05-05T12:40:44.860Z,70
2017-05-05T12:41:44.890Z,70
2017-05-05T12:42:44.907Z,70
2017-05-05T12:43:59.546Z,70
2017-05-05T12:44:44.962Z,75
2017-05-05T12:45:44.983Z,80
2017-05-05T12:46:44.701Z,85
2017-05-05T12:47:45.027Z,85
2017-05-05T12:48:45.047Z,90
2017-05-05T12:50:45.093Z,85
2017-05-05T12:51:45.119Z,85
2017-05-05T12:52:59.452Z,90
2017-05-05T12:53:44.868Z,90
2017-05-05T12:54:59.806Z,100
2017-05-05T12:55:45.211Z,100
2017-05-05T12:56:45.237Z,100
2017-05-05T12:57:45.259Z,100
2017-05-05T12:58:59.906Z,105
2017-05-05T12:59:45.313Z,110
2017-05-05T13:00:59.946Z,110
2017-05-05T13:01:45.363Z,115
2017-05-05T13:03:00.000Z,120
2017-05-05T13:03:45.403Z,120
2017-05-05T13:04:45.426Z,115
2017-05-05T13:05:45.454Z,115
2017-05-05T13:06:45.474Z,110
2017-05-05T13:07:44.889Z,105
2017-05-05T13:09:00.136Z,105
2017-05-05T13:09:45.541Z,100
2017-05-05T13:10:45.568Z,100
2017-05-05T13:11:45.597Z,100
2017-05-05T13:13:14.846Z,95
2017-05-05T13:13:45.638Z,95
2017-05-05T13:14:59.673Z,90
2017-05-05T13:15:45.687Z,90
2017-05-05T13:16:45.709Z,90
2017-05-05T13:17:45.743Z,95
2017-05-05T13:18:45.759Z,95
2017-05-05T13:20:45.810Z,100
2017-05-05T13:22:00.142Z,100
2017-05-05T13:22:46.156Z,95
2017-05-05T13:23:45.875Z,95
2017-05-05T13:25:00.515Z,95
2017-05-05T13:26:00.236Z,95
2017-05-05T13:27:00.564Z,95
2017-05-05T13:27:45.970Z,95
2017-05-05T13:28:45.993Z,95
2017-05-05T13:29:46.017Z,95
2017-05-05T13:31:00.658Z,95
2017-05-05T13:31:45.773Z,90
2017-05-05T13:32:46.090Z,85
2017-05-05T13:33:45.809Z,80
2017-05-05T13:34:46.140Z,80
2017-05-05T13:35:45.864Z,80
2017-05-05T13:37:00.500Z,80
2017-05-05T13:37:46.308Z,85
2017-05-05T13:38:46.233Z,85
2017-05-05T13:40:00.872Z,90
2017-05-05T13:40:45.974Z,90
2017-05-05T13:41:46.612Z,90
2017-05-05T13:43:00.939Z,95
2017-05-05T13:44:15.584Z,100
2017-05-05T13:44:46.381Z,100
2017-05-05T13:46:01.016Z,110
2017-05-05T13:47:15.653Z,115
2017-05-05T13:48:46.471Z,120
2017-05-05T13:49:46.492Z,125
2017-05-05T13:50:46.522Z,125
2017-05-05T13:52:00.602Z,125
2017-05-05T13:53:46.619Z,130
2017-05-05T13:55:01.334Z,130
2017-05-05T13:55:46.332Z,135
2017-05-05T13:56:46.861Z,135
2017-05-05T13:58:01.551Z,140
2017-05-05T14:00:01.403Z,145
2017-05-05T14:01:01.375Z,150
2017-05-05T14:02:01.096Z,160
2017-05-05T14:02:46.500Z,170
2017-05-05T14:03:46.830Z,160
2017-05-05T14:04:46.853Z,160
2017-05-05T14:05:46.880Z,160
2017-05-05T14:06:46.907Z,160
2017-05-05T14:08:46.949Z,165
2017-05-05T14:09:46.973Z,165
2017-05-05T14:11:01.620Z,170
2017-05-05T14:12:01.638Z,170
2017-05-05T14:12:47.055Z,170
2017-05-05T14:13:47.104Z,170
2017-05-05T14:15:01.408Z,170
2017-05-05T14:15:47.119Z,170
2017-05-05T14:17:01.458Z,170
2017-05-05T14:17:47.166Z,165
2017-05-05T14:18:47.193Z,165
2017-05-05T14:19:47.216Z,165
2017-05-05T14:20:46.635Z,170
2017-05-05T14:21:47.268Z,175
2017-05-05T14:22:46.987Z,190
2017-05-05T14:24:02.246Z,210
2017-05-05T14:25:01.959Z,200
2017-05-05T14:25:47.368Z,185
2017-05-05T14:26:47.385Z,165
2017-05-05T14:27:47.406Z,165
2017-05-05T14:28:47.435Z,165
2017-05-05T14:29:47.468Z,180
2017-05-05T14:30:47.483Z,190
2017-05-05T14:32:02.129Z,160
2017-05-05T14:32:47.532Z,155
2017-05-05T14:34:47.582Z,150
2017-05-05T14:36:47.636Z,150
2017-05-05T14:37:47.657Z,145
2017-05-05T14:38:47.684Z,145
2017-05-05T14:39:47.708Z,145
2017-05-05T14:40:47.732Z,145
2017-05-05T14:41:47.754Z,140
2017-05-05T14:42:47.780Z,140
2017-05-05T14:43:47.807Z,135
2017-05-05T14:44:47.835Z,130
2017-05-05T14:46:02.474Z,125
2017-05-05T14:47:47.612Z,120
2017-05-05T14:48:47.624Z,115
2017-05-05T14:50:47.680Z,105
2017-05-05T14:51:48.008Z,105
2017-05-05T14:52:48.027Z,105
2017-05-05T14:53:47.747Z,100
2017-05-05T14:54:48.077Z,100
2017-05-05T14:55:48.109Z,100
2017-05-05T14:56:48.128Z,95
2017-05-05T14:57:48.151Z,90
2017-05-05T14:58:48.174Z,90
2017-05-05T14:59:47.901Z,90
2017-05-05T15:00:48.225Z,90
2017-05-05T15:02:02.563Z,90
2017-05-05T15:03:02.890Z,90
2017-05-05T15:03:48.298Z,90
2017-05-05T15:04:48.016Z,90
2017-05-05T15:06:02.970Z,90
2017-05-05T15:06:48.066Z,85
2017-05-05T15:08:48.426Z,80
2017-05-05T15:09:48.453Z,75
2017-05-05T15:10:48.468Z,75
2017-05-05T15:12:03.112Z,75
2017-05-05T15:12:48.213Z,70
2017-05-05T15:13:48.541Z,70
2017-05-05T15:14:48.263Z,70
2017-05-05T15:15:48.286Z,65
2017-05-05T15:16:48.312Z,65
2017-05-05T15:17:48.640Z,65
2017-05-05T15:18:48.662Z,60